sensor_id;sensor_type;location;lat;lon;timestamp;P1;durP1;ratioP1;P2;durP2;ratioP2
23322;SDS011;11833;52.554;13.554;2024-01-30T00:01:52;8.82;;;5.10;;
23322;SDS011;11833;52.554;13.554;2024-01-30T00:04:18;12.63;;;5.65;;
23322;SDS011;11833;52.554;13.554;2024-01-30T00:06:44;7.07;;;4.65;;
23322;SDS011;11833;52.554;13.554;2024-01-30T00:09:10;9.05;;;4.47;;
23322;SDS011;11833;52.554;13.554;2024-01-30T00:11:39;6.93;;;4.45;;
23322;SDS011;11833;52.554;13.554;2024-01-30T00:14:05;7.38;;;4.45;;
23322;SDS011;11833;52.554;13.554;2024-01-30T00:16:31;8.52;;;5.00;;
23322;SDS011;11833;52.554;13.554;2024-01-30T00:18:56;7.60;;;4.38;;
23322;SDS011;11833;52.554;13.554;2024-01-30T00:21:22;6.70;;;4.65;;
23322;SDS011;11833;52.554;13.554;2024-01-30T00:23:48;10.20;;;4.45;;
23322;SDS011;11833;52.554;13.554;2024-01-30T00:26:14;12.45;;;5.13;;
23322;SDS011;11833;52.554;13.554;2024-01-30T00:28:43;6.95;;;4.47;;
23322;SDS011;11833;52.554;13.554;2024-01-30T00:31:09;11.00;;;4.93;;
23322;SDS011;11833;52.554;13.554;2024-01-30T00:33:38;10.55;;;4.53;;
23322;SDS011;11833;52.554;13.554;2024-01-30T00:36:05;9.88;;;4.93;;
23322;SDS011;11833;52.554;13.554;2024-01-30T00:38:32;8.60;;;5.70;;
23322;SDS011;11833;52.554;13.554;2024-01-30T00:40:58;9.40;;;4.50;;
23322;SDS011;11833;52.554;13.554;2024-01-30T00:43:24;9.20;;;4.60;;
23322;SDS011;11833;52.554;13.554;2024-01-30T00:45:52;8.25;;;4.65;;
23322;SDS011;11833;52.554;13.554;2024-01-30T00:48:18;7.47;;;4.10;;
23322;SDS011;11833;52.554;13.554;2024-01-30T00:50:43;11.85;;;5.25;;
23322;SDS011;11833;52.554;13.554;2024-01-30T00:53:09;6.53;;;4.43;;
23322;SDS011;11833;52.554;13.554;2024-01-30T00:55:35;8.00;;;4.40;;
23322;SDS011;11833;52.554;13.554;2024-01-30T00:58:01;8.93;;;5.07;;
23322;SDS011;11833;52.554;13.554;2024-01-30T01:00:27;9.05;;;4.75;;
23322;SDS011;11833;52.554;13.554;2024-01-30T01:03:03;8.55;;;4.35;;
23322;SDS011;11833;52.554;13.554;2024-01-30T01:05:29;8.07;;;4.53;;
23322;SDS011;11833;52.554;13.554;2024-01-30T01:07:54;8.45;;;4.97;;
23322;SDS011;11833;52.554;13.554;2024-01-30T01:10:20;5.88;;;3.45;;
23322;SDS011;11833;52.554;13.554;2024-01-30T01:12:46;10.00;;;4.65;;
23322;SDS011;11833;52.554;13.554;2024-01-30T01:15:13;7.57;;;4.70;;
23322;SDS011;11833;52.554;13.554;2024-01-30T01:17:39;9.48;;;5.13;;
23322;SDS011;11833;52.554;13.554;2024-01-30T01:20:06;13.60;;;4.45;;
23322;SDS011;11833;52.554;13.554;2024-01-30T01:22:33;7.72;;;3.33;;
23322;SDS011;11833;52.554;13.554;2024-01-30T01:24:59;7.95;;;4.50;;
23322;SDS011;11833;52.554;13.554;2024-01-30T01:27:25;11.48;;;5.38;;
23322;SDS011;11833;52.554;13.554;2024-01-30T01:29:51;20.60;;;4.80;;
23322;SDS011;11833;52.554;13.554;2024-01-30T01:32:18;7.78;;;4.40;;
23322;SDS011;11833;52.554;13.554;2024-01-30T01:34:44;8.50;;;5.00;;
23322;SDS011;11833;52.554;13.554;2024-01-30T01:37:10;8.52;;;4.63;;
23322;SDS011;11833;52.554;13.554;2024-01-30T01:39:36;10.65;;;4.20;;
23322;SDS011;11833;52.554;13.554;2024-01-30T01:42:01;8.95;;;4.60;;
23322;SDS011;11833;52.554;13.554;2024-01-30T01:44:27;7.85;;;4.07;;
23322;SDS011;11833;52.554;13.554;2024-01-30T01:46:54;7.30;;;4.28;;
23322;SDS011;11833;52.554;13.554;2024-01-30T01:49:24;8.13;;;4.32;;
23322;SDS011;11833;52.554;13.554;2024-01-30T01:51:53;7.55;;;4.28;;
23322;SDS011;11833;52.554;13.554;2024-01-30T01:54:21;9.13;;;4.95;;
23322;SDS011;11833;52.554;13.554;2024-01-30T01:56:49;9.35;;;4.88;;
23322;SDS011;11833;52.554;13.554;2024-01-30T01:59:15;7.93;;;4.50;;
23322;SDS011;11833;52.554;13.554;2024-01-30T02:01:41;9.52;;;5.13;;
23322;SDS011;11833;52.554;13.554;2024-01-30T02:04:08;9.35;;;4.88;;
23322;SDS011;11833;52.554;13.554;2024-01-30T02:06:34;10.27;;;5.43;;
23322;SDS011;11833;52.554;13.554;2024-01-30T02:09:00;11.35;;;4.95;;
23322;SDS011;11833;52.554;13.554;2024-01-30T02:11:26;10.68;;;4.80;;
23322;SDS011;11833;52.554;13.554;2024-01-30T02:13:52;9.75;;;5.22;;
23322;SDS011;11833;52.554;13.554;2024-01-30T02:16:18;5.70;;;3.78;;
23322;SDS011;11833;52.554;13.554;2024-01-30T02:18:44;7.63;;;5.00;;
23322;SDS011;11833;52.554;13.554;2024-01-30T02:21:12;8.50;;;5.63;;
23322;SDS011;11833;52.554;13.554;2024-01-30T02:23:40;6.80;;;4.10;;
23322;SDS011;11833;52.554;13.554;2024-01-30T02:26:08;11.27;;;4.97;;
23322;SDS011;11833;52.554;13.554;2024-01-30T02:28:34;9.27;;;4.70;;
23322;SDS011;11833;52.554;13.554;2024-01-30T02:31:00;9.45;;;4.68;;
23322;SDS011;11833;52.554;13.554;2024-01-30T02:33:25;7.80;;;4.93;;
23322;SDS011;11833;52.554;13.554;2024-01-30T02:35:51;9.52;;;4.97;;
23322;SDS011;11833;52.554;13.554;2024-01-30T02:38:17;9.82;;;5.15;;
23322;SDS011;11833;52.554;13.554;2024-01-30T02:40:43;11.93;;;5.10;;
23322;SDS011;11833;52.554;13.554;2024-01-30T02:43:08;10.02;;;4.80;;
23322;SDS011;11833;52.554;13.554;2024-01-30T02:45:34;11.00;;;5.50;;
23322;SDS011;11833;52.554;13.554;2024-01-30T02:48:00;11.07;;;4.20;;
23322;SDS011;11833;52.554;13.554;2024-01-30T02:50:25;11.35;;;4.93;;
23322;SDS011;11833;52.554;13.554;2024-01-30T02:52:51;9.00;;;4.07;;
23322;SDS011;11833;52.554;13.554;2024-01-30T02:55:17;8.15;;;4.95;;
23322;SDS011;11833;52.554;13.554;2024-01-30T02:57:43;11.55;;;5.10;;
23322;SDS011;11833;52.554;13.554;2024-01-30T03:00:09;8.18;;;4.68;;
23322;SDS011;11833;52.554;13.554;2024-01-30T03:02:36;9.10;;;5.20;;
23322;SDS011;11833;52.554;13.554;2024-01-30T03:05:02;8.05;;;4.28;;
23322;SDS011;11833;52.554;13.554;2024-01-30T03:07:32;8.85;;;4.60;;
23322;SDS011;11833;52.554;13.554;2024-01-30T03:09:59;9.73;;;4.75;;
23322;SDS011;11833;52.554;13.554;2024-01-30T03:12:25;9.98;;;4.97;;
23322;SDS011;11833;52.554;13.554;2024-01-30T03:14:51;12.18;;;5.85;;
23322;SDS011;11833;52.554;13.554;2024-01-30T03:17:16;9.85;;;5.68;;
23322;SDS011;11833;52.554;13.554;2024-01-30T03:19:42;15.50;;;4.85;;
23322;SDS011;11833;52.554;13.554;2024-01-30T03:22:08;9.10;;;4.85;;
23322;SDS011;11833;52.554;13.554;2024-01-30T03:24:33;10.13;;;5.45;;
23322;SDS011;11833;52.554;13.554;2024-01-30T03:26:59;10.30;;;5.32;;
23322;SDS011;11833;52.554;13.554;2024-01-30T03:29:25;12.38;;;6.20;;
23322;SDS011;11833;52.554;13.554;2024-01-30T03:31:50;7.30;;;4.38;;
23322;SDS011;11833;52.554;13.554;2024-01-30T03:34:16;9.43;;;4.95;;
23322;SDS011;11833;52.554;13.554;2024-01-30T03:36:42;9.80;;;4.57;;
23322;SDS011;11833;52.554;13.554;2024-01-30T03:39:07;7.60;;;4.88;;
23322;SDS011;11833;52.554;13.554;2024-01-30T03:41:33;8.75;;;4.80;;
23322;SDS011;11833;52.554;13.554;2024-01-30T03:43:59;7.20;;;4.50;;
23322;SDS011;11833;52.554;13.554;2024-01-30T03:46:24;8.93;;;5.38;;
23322;SDS011;11833;52.554;13.554;2024-01-30T03:48:50;9.15;;;5.38;;
23322;SDS011;11833;52.554;13.554;2024-01-30T03:51:16;9.32;;;4.60;;
23322;SDS011;11833;52.554;13.554;2024-01-30T03:53:42;9.77;;;5.50;;
23322;SDS011;11833;52.554;13.554;2024-01-30T03:56:08;6.72;;;4.57;;
23322;SDS011;11833;52.554;13.554;2024-01-30T03:58:34;9.45;;;5.53;;
23322;SDS011;11833;52.554;13.554;2024-01-30T04:01:00;10.23;;;5.60;;
23322;SDS011;11833;52.554;13.554;2024-01-30T04:03:26;9.60;;;5.35;;
23322;SDS011;11833;52.554;13.554;2024-01-30T04:05:52;9.65;;;5.15;;
23322;SDS011;11833;52.554;13.554;2024-01-30T04:08:18;9.27;;;5.20;;
23322;SDS011;11833;52.554;13.554;2024-01-30T04:10:44;8.68;;;5.72;;
23322;SDS011;11833;52.554;13.554;2024-01-30T04:13:12;9.98;;;4.57;;
23322;SDS011;11833;52.554;13.554;2024-01-30T04:15:38;8.32;;;4.30;;
23322;SDS011;11833;52.554;13.554;2024-01-30T04:18:04;10.00;;;5.07;;
23322;SDS011;11833;52.554;13.554;2024-01-30T04:20:30;8.50;;;5.40;;
23322;SDS011;11833;52.554;13.554;2024-01-30T04:22:56;7.45;;;4.45;;
23322;SDS011;11833;52.554;13.554;2024-01-30T04:25:22;10.38;;;5.47;;
23322;SDS011;11833;52.554;13.554;2024-01-30T04:27:47;9.95;;;5.03;;
23322;SDS011;11833;52.554;13.554;2024-01-30T04:30:13;12.43;;;5.65;;
23322;SDS011;11833;52.554;13.554;2024-01-30T04:32:39;8.63;;;5.22;;
23322;SDS011;11833;52.554;13.554;2024-01-30T04:35:05;12.60;;;5.30;;
23322;SDS011;11833;52.554;13.554;2024-01-30T04:37:31;11.60;;;5.75;;
23322;SDS011;11833;52.554;13.554;2024-01-30T04:39:57;10.07;;;4.95;;
23322;SDS011;11833;52.554;13.554;2024-01-30T04:42:22;13.15;;;6.18;;
23322;SDS011;11833;52.554;13.554;2024-01-30T04:44:49;9.07;;;5.95;;
23322;SDS011;11833;52.554;13.554;2024-01-30T04:47:15;6.60;;;4.43;;
23322;SDS011;11833;52.554;13.554;2024-01-30T04:49:41;12.35;;;5.40;;
23322;SDS011;11833;52.554;13.554;2024-01-30T04:52:07;11.55;;;5.57;;
23322;SDS011;11833;52.554;13.554;2024-01-30T04:54:36;7.25;;;4.93;;
23322;SDS011;11833;52.554;13.554;2024-01-30T04:57:02;6.78;;;4.55;;
23322;SDS011;11833;52.554;13.554;2024-01-30T04:59:28;8.70;;;4.75;;
23322;SDS011;11833;52.554;13.554;2024-01-30T05:01:54;8.43;;;5.13;;
23322;SDS011;11833;52.554;13.554;2024-01-30T05:04:19;9.60;;;4.78;;
23322;SDS011;11833;52.554;13.554;2024-01-30T05:06:45;11.68;;;5.88;;
23322;SDS011;11833;52.554;13.554;2024-01-30T05:09:11;12.13;;;5.13;;
23322;SDS011;11833;52.554;13.554;2024-01-30T05:11:40;7.53;;;4.93;;
23322;SDS011;11833;52.554;13.554;2024-01-30T05:14:06;10.25;;;5.68;;
23322;SDS011;11833;52.554;13.554;2024-01-30T05:16:33;10.30;;;5.10;;
23322;SDS011;11833;52.554;13.554;2024-01-30T05:18:59;10.65;;;5.20;;
23322;SDS011;11833;52.554;13.554;2024-01-30T05:21:25;10.65;;;5.88;;
23322;SDS011;11833;52.554;13.554;2024-01-30T05:23:51;9.02;;;5.47;;
23322;SDS011;11833;52.554;13.554;2024-01-30T05:26:17;9.55;;;5.68;;
23322;SDS011;11833;52.554;13.554;2024-01-30T05:28:43;10.45;;;5.97;;
23322;SDS011;11833;52.554;13.554;2024-01-30T05:31:09;11.82;;;5.20;;
23322;SDS011;11833;52.554;13.554;2024-01-30T05:33:35;6.68;;;4.20;;
23322;SDS011;11833;52.554;13.554;2024-01-30T05:36:01;9.23;;;4.75;;
23322;SDS011;11833;52.554;13.554;2024-01-30T05:38:28;9.70;;;5.70;;
23322;SDS011;11833;52.554;13.554;2024-01-30T05:40:54;10.55;;;5.93;;
23322;SDS011;11833;52.554;13.554;2024-01-30T05:43:20;11.82;;;7.75;;
23322;SDS011;11833;52.554;13.554;2024-01-30T05:45:46;8.38;;;4.70;;
23322;SDS011;11833;52.554;13.554;2024-01-30T05:48:11;9.45;;;4.75;;
23322;SDS011;11833;52.554;13.554;2024-01-30T05:50:37;9.18;;;4.85;;
23322;SDS011;11833;52.554;13.554;2024-01-30T05:53:03;8.73;;;5.13;;
23322;SDS011;11833;52.554;13.554;2024-01-30T05:55:28;7.80;;;4.68;;
23322;SDS011;11833;52.554;13.554;2024-01-30T05:57:54;10.18;;;5.57;;
23322;SDS011;11833;52.554;13.554;2024-01-30T06:00:20;8.23;;;5.13;;
23322;SDS011;11833;52.554;13.554;2024-01-30T06:02:46;8.32;;;4.50;;
23322;SDS011;11833;52.554;13.554;2024-01-30T06:05:12;10.70;;;5.03;;
23322;SDS011;11833;52.554;13.554;2024-01-30T06:07:37;10.23;;;6.18;;
23322;SDS011;11833;52.554;13.554;2024-01-30T06:10:03;10.20;;;5.47;;
23322;SDS011;11833;52.554;13.554;2024-01-30T06:12:30;9.98;;;5.30;;
23322;SDS011;11833;52.554;13.554;2024-01-30T06:14:55;11.07;;;5.97;;
23322;SDS011;11833;52.554;13.554;2024-01-30T06:17:22;13.75;;;5.82;;
23322;SDS011;11833;52.554;13.554;2024-01-30T06:19:50;10.43;;;5.20;;
23322;SDS011;11833;52.554;13.554;2024-01-30T06:22:16;12.60;;;5.53;;
23322;SDS011;11833;52.554;13.554;2024-01-30T06:24:42;12.93;;;6.40;;
23322;SDS011;11833;52.554;13.554;2024-01-30T06:27:10;8.63;;;5.35;;
23322;SDS011;11833;52.554;13.554;2024-01-30T06:29:36;8.45;;;5.30;;
23322;SDS011;11833;52.554;13.554;2024-01-30T06:32:01;11.20;;;5.45;;
23322;SDS011;11833;52.554;13.554;2024-01-30T06:34:28;11.20;;;5.70;;
23322;SDS011;11833;52.554;13.554;2024-01-30T06:36:54;11.50;;;5.80;;
23322;SDS011;11833;52.554;13.554;2024-01-30T06:39:20;8.75;;;5.50;;
23322;SDS011;11833;52.554;13.554;2024-01-30T06:41:45;13.98;;;5.75;;
23322;SDS011;11833;52.554;13.554;2024-01-30T06:44:11;9.50;;;5.22;;
23322;SDS011;11833;52.554;13.554;2024-01-30T06:46:38;10.05;;;5.93;;
23322;SDS011;11833;52.554;13.554;2024-01-30T06:49:04;11.27;;;5.32;;
23322;SDS011;11833;52.554;13.554;2024-01-30T06:51:29;13.18;;;5.95;;
23322;SDS011;11833;52.554;13.554;2024-01-30T06:53:55;9.45;;;5.70;;
23322;SDS011;11833;52.554;13.554;2024-01-30T06:56:21;7.45;;;5.03;;
23322;SDS011;11833;52.554;13.554;2024-01-30T06:58:48;9.80;;;5.32;;
23322;SDS011;11833;52.554;13.554;2024-01-30T07:01:14;9.27;;;5.40;;
23322;SDS011;11833;52.554;13.554;2024-01-30T07:03:40;9.77;;;5.68;;
23322;SDS011;11833;52.554;13.554;2024-01-30T07:06:06;12.13;;;5.38;;
23322;SDS011;11833;52.554;13.554;2024-01-30T07:08:32;10.63;;;5.50;;
23322;SDS011;11833;52.554;13.554;2024-01-30T07:10:58;12.25;;;5.50;;
23322;SDS011;11833;52.554;13.554;2024-01-30T07:13:24;10.30;;;5.35;;
23322;SDS011;11833;52.554;13.554;2024-01-30T07:15:50;9.48;;;6.00;;
23322;SDS011;11833;52.554;13.554;2024-01-30T07:18:16;10.30;;;5.43;;
23322;SDS011;11833;52.554;13.554;2024-01-30T07:20:41;9.68;;;6.13;;
23322;SDS011;11833;52.554;13.554;2024-01-30T07:23:14;12.63;;;5.97;;
23322;SDS011;11833;52.554;13.554;2024-01-30T07:25:43;10.02;;;5.18;;
23322;SDS011;11833;52.554;13.554;2024-01-30T07:28:10;9.75;;;5.22;;
23322;SDS011;11833;52.554;13.554;2024-01-30T07:30:37;12.77;;;5.88;;
23322;SDS011;11833;52.554;13.554;2024-01-30T07:33:03;9.40;;;5.55;;
23322;SDS011;11833;52.554;13.554;2024-01-30T07:35:29;6.32;;;4.78;;
23322;SDS011;11833;52.554;13.554;2024-01-30T07:37:55;10.23;;;5.60;;
23322;SDS011;11833;52.554;13.554;2024-01-30T07:40:22;8.45;;;5.20;;
23322;SDS011;11833;52.554;13.554;2024-01-30T07:42:49;9.77;;;5.55;;
23322;SDS011;11833;52.554;13.554;2024-01-30T07:45:14;8.82;;;5.45;;
23322;SDS011;11833;52.554;13.554;2024-01-30T07:47:40;10.23;;;5.40;;
23322;SDS011;11833;52.554;13.554;2024-01-30T07:50:07;9.85;;;5.85;;
23322;SDS011;11833;52.554;13.554;2024-01-30T07:52:34;9.15;;;5.55;;
23322;SDS011;11833;52.554;13.554;2024-01-30T07:55:00;10.63;;;5.70;;
23322;SDS011;11833;52.554;13.554;2024-01-30T07:57:25;10.35;;;5.90;;
23322;SDS011;11833;52.554;13.554;2024-01-30T07:59:51;10.10;;;6.43;;
23322;SDS011;11833;52.554;13.554;2024-01-30T08:02:17;12.60;;;4.78;;
23322;SDS011;11833;52.554;13.554;2024-01-30T08:04:42;9.82;;;5.45;;
23322;SDS011;11833;52.554;13.554;2024-01-30T08:07:08;11.52;;;5.18;;
23322;SDS011;11833;52.554;13.554;2024-01-30T08:09:34;10.85;;;5.82;;
23322;SDS011;11833;52.554;13.554;2024-01-30T08:11:59;7.55;;;4.43;;
23322;SDS011;11833;52.554;13.554;2024-01-30T08:14:25;9.80;;;5.00;;
23322;SDS011;11833;52.554;13.554;2024-01-30T08:16:51;6.68;;;4.68;;
23322;SDS011;11833;52.554;13.554;2024-01-30T08:19:16;9.63;;;5.68;;
23322;SDS011;11833;52.554;13.554;2024-01-30T08:21:42;14.82;;;8.50;;
23322;SDS011;11833;52.554;13.554;2024-01-30T08:24:08;13.48;;;6.72;;
23322;SDS011;11833;52.554;13.554;2024-01-30T08:26:34;11.20;;;6.45;;
23322;SDS011;11833;52.554;13.554;2024-01-30T08:29:00;11.60;;;5.40;;
23322;SDS011;11833;52.554;13.554;2024-01-30T08:31:26;10.25;;;5.72;;
23322;SDS011;11833;52.554;13.554;2024-01-30T08:33:52;14.13;;;6.25;;
23322;SDS011;11833;52.554;13.554;2024-01-30T08:36:18;12.57;;;6.60;;
23322;SDS011;11833;52.554;13.554;2024-01-30T08:38:44;11.52;;;5.75;;
23322;SDS011;11833;52.554;13.554;2024-01-30T08:41:10;14.82;;;6.07;;
23322;SDS011;11833;52.554;13.554;2024-01-30T08:43:36;15.93;;;6.13;;
23322;SDS011;11833;52.554;13.554;2024-01-30T08:46:02;13.05;;;5.97;;
23322;SDS011;11833;52.554;13.554;2024-01-30T08:48:28;15.27;;;6.43;;
23322;SDS011;11833;52.554;13.554;2024-01-30T08:50:54;10.15;;;5.47;;
23322;SDS011;11833;52.554;13.554;2024-01-30T08:53:20;9.38;;;5.50;;
23322;SDS011;11833;52.554;13.554;2024-01-30T08:55:45;13.73;;;7.07;;
23322;SDS011;11833;52.554;13.554;2024-01-30T08:58:11;11.55;;;5.95;;
23322;SDS011;11833;52.554;13.554;2024-01-30T09:00:37;7.82;;;5.00;;
23322;SDS011;11833;52.554;13.554;2024-01-30T09:03:03;13.25;;;5.68;;
23322;SDS011;11833;52.554;13.554;2024-01-30T09:05:29;9.85;;;5.53;;
23322;SDS011;11833;52.554;13.554;2024-01-30T09:07:55;11.23;;;5.57;;
23322;SDS011;11833;52.554;13.554;2024-01-30T09:10:21;12.25;;;6.07;;
23322;SDS011;11833;52.554;13.554;2024-01-30T09:12:47;11.45;;;5.63;;
23322;SDS011;11833;52.554;13.554;2024-01-30T09:15:13;8.73;;;5.30;;
23322;SDS011;11833;52.554;13.554;2024-01-30T09:17:39;8.57;;;5.63;;
23322;SDS011;11833;52.554;13.554;2024-01-30T09:20:05;9.90;;;6.10;;
23322;SDS011;11833;52.554;13.554;2024-01-30T09:22:31;8.27;;;5.20;;
23322;SDS011;11833;52.554;13.554;2024-01-30T09:24:57;9.93;;;5.80;;
23322;SDS011;11833;52.554;13.554;2024-01-30T09:27:23;9.93;;;5.78;;
23322;SDS011;11833;52.554;13.554;2024-01-30T09:29:49;12.13;;;6.40;;
23322;SDS011;11833;52.554;13.554;2024-01-30T09:32:14;11.68;;;6.85;;
23322;SDS011;11833;52.554;13.554;2024-01-30T09:34:40;11.35;;;6.30;;
23322;SDS011;11833;52.554;13.554;2024-01-30T09:37:07;8.15;;;5.53;;
23322;SDS011;11833;52.554;13.554;2024-01-30T09:39:32;13.00;;;5.45;;
23322;SDS011;11833;52.554;13.554;2024-01-30T09:44:48;9.43;;;6.05;;
23322;SDS011;11833;52.554;13.554;2024-01-30T09:47:17;10.27;;;5.70;;
23322;SDS011;11833;52.554;13.554;2024-01-30T09:49:43;9.80;;;6.00;;
23322;SDS011;11833;52.554;13.554;2024-01-30T09:52:09;12.80;;;6.45;;
23322;SDS011;11833;52.554;13.554;2024-01-30T09:54:36;12.50;;;5.70;;
23322;SDS011;11833;52.554;13.554;2024-01-30T09:57:03;9.25;;;5.18;;
23322;SDS011;11833;52.554;13.554;2024-01-30T09:59:29;12.98;;;6.55;;
23322;SDS011;11833;52.554;13.554;2024-01-30T10:01:56;8.05;;;5.22;;
23322;SDS011;11833;52.554;13.554;2024-01-30T10:04:22;15.93;;;7.00;;
23322;SDS011;11833;52.554;13.554;2024-01-30T10:06:48;11.65;;;5.80;;
23322;SDS011;11833;52.554;13.554;2024-01-30T10:09:14;10.32;;;5.55;;
23322;SDS011;11833;52.554;13.554;2024-01-30T10:11:40;13.25;;;5.30;;
23322;SDS011;11833;52.554;13.554;2024-01-30T10:14:06;12.27;;;6.97;;
23322;SDS011;11833;52.554;13.554;2024-01-30T10:16:31;14.73;;;6.47;;
23322;SDS011;11833;52.554;13.554;2024-01-30T10:18:58;8.93;;;5.13;;
23322;SDS011;11833;52.554;13.554;2024-01-30T10:21:23;10.35;;;6.55;;
23322;SDS011;11833;52.554;13.554;2024-01-30T10:23:49;9.88;;;5.88;;
23322;SDS011;11833;52.554;13.554;2024-01-30T10:26:18;9.35;;;4.93;;
23322;SDS011;11833;52.554;13.554;2024-01-30T10:28:44;13.23;;;5.88;;
23322;SDS011;11833;52.554;13.554;2024-01-30T10:31:10;12.05;;;5.70;;
23322;SDS011;11833;52.554;13.554;2024-01-30T10:33:36;14.52;;;5.70;;
23322;SDS011;11833;52.554;13.554;2024-01-30T10:36:03;9.57;;;5.47;;
23322;SDS011;11833;52.554;13.554;2024-01-30T10:38:31;10.98;;;6.28;;
23322;SDS011;11833;52.554;13.554;2024-01-30T10:40:58;10.95;;;5.28;;
23322;SDS011;11833;52.554;13.554;2024-01-30T10:43:35;7.25;;;5.15;;
23322;SDS011;11833;52.554;13.554;2024-01-30T10:48:44;8.32;;;4.80;;
23322;SDS011;11833;52.554;13.554;2024-01-30T10:51:20;13.90;;;5.32;;
23322;SDS011;11833;52.554;13.554;2024-01-30T10:53:47;13.32;;;5.85;;
23322;SDS011;11833;52.554;13.554;2024-01-30T10:56:15;9.18;;;4.28;;
23322;SDS011;11833;52.554;13.554;2024-01-30T10:58:42;9.35;;;5.30;;
23322;SDS011;11833;52.554;13.554;2024-01-30T11:01:08;9.60;;;4.80;;
23322;SDS011;11833;52.554;13.554;2024-01-30T11:03:34;7.07;;;4.53;;
23322;SDS011;11833;52.554;13.554;2024-01-30T11:06:01;7.68;;;4.72;;
23322;SDS011;11833;52.554;13.554;2024-01-30T11:08:28;8.13;;;4.25;;
23322;SDS011;11833;52.554;13.554;2024-01-30T11:10:58;8.00;;;4.47;;
23322;SDS011;11833;52.554;13.554;2024-01-30T11:13:30;8.90;;;4.28;;
23322;SDS011;11833;52.554;13.554;2024-01-30T11:16:03;7.35;;;4.43;;
23322;SDS011;11833;52.554;13.554;2024-01-30T11:18:30;7.28;;;4.13;;
23322;SDS011;11833;52.554;13.554;2024-01-30T11:21:00;12.02;;;5.20;;
23322;SDS011;11833;52.554;13.554;2024-01-30T11:23:30;8.50;;;4.70;;
23322;SDS011;11833;52.554;13.554;2024-01-30T11:25:58;6.97;;;4.63;;
23322;SDS011;11833;52.554;13.554;2024-01-30T11:28:23;4.95;;;3.90;;
23322;SDS011;11833;52.554;13.554;2024-01-30T11:30:49;9.57;;;3.50;;
23322;SDS011;11833;52.554;13.554;2024-01-30T11:33:16;4.28;;;2.95;;
23322;SDS011;11833;52.554;13.554;2024-01-30T11:35:56;9.38;;;4.07;;
23322;SDS011;11833;52.554;13.554;2024-01-30T11:38:26;6.05;;;2.78;;
23322;SDS011;11833;52.554;13.554;2024-01-30T11:40:56;7.07;;;4.03;;
23322;SDS011;11833;52.554;13.554;2024-01-30T11:43:22;8.60;;;3.22;;
23322;SDS011;11833;52.554;13.554;2024-01-30T11:45:48;5.68;;;3.42;;
23322;SDS011;11833;52.554;13.554;2024-01-30T11:48:14;9.18;;;4.03;;
23322;SDS011;11833;52.554;13.554;2024-01-30T11:50:40;6.90;;;3.38;;
23322;SDS011;11833;52.554;13.554;2024-01-30T11:53:06;4.72;;;3.42;;
23322;SDS011;11833;52.554;13.554;2024-01-30T11:55:32;8.75;;;3.28;;
23322;SDS011;11833;52.554;13.554;2024-01-30T11:57:59;6.35;;;3.33;;
23322;SDS011;11833;52.554;13.554;2024-01-30T12:00:25;7.22;;;3.67;;
23322;SDS011;11833;52.554;13.554;2024-01-30T12:02:51;7.07;;;3.17;;
23322;SDS011;11833;52.554;13.554;2024-01-30T12:05:22;8.23;;;3.88;;
23322;SDS011;11833;52.554;13.554;2024-01-30T12:07:49;6.45;;;3.65;;
23322;SDS011;11833;52.554;13.554;2024-01-30T12:10:16;6.15;;;3.40;;
23322;SDS011;11833;52.554;13.554;2024-01-30T12:12:45;5.22;;;3.20;;
23322;SDS011;11833;52.554;13.554;2024-01-30T12:15:14;8.48;;;4.32;;
23322;SDS011;11833;52.554;13.554;2024-01-30T12:17:40;11.68;;;5.55;;
23322;SDS011;11833;52.554;13.554;2024-01-30T12:20:07;6.63;;;4.13;;
23322;SDS011;11833;52.554;13.554;2024-01-30T12:22:43;6.50;;;4.00;;
23322;SDS011;11833;52.554;13.554;2024-01-30T12:25:14;6.10;;;3.55;;
23322;SDS011;11833;52.554;13.554;2024-01-30T12:27:42;6.82;;;4.00;;
23322;SDS011;11833;52.554;13.554;2024-01-30T12:30:13;5.43;;;3.42;;
23322;SDS011;11833;52.554;13.554;2024-01-30T12:32:39;6.47;;;4.25;;
23322;SDS011;11833;52.554;13.554;2024-01-30T12:35:10;6.18;;;3.90;;
23322;SDS011;11833;52.554;13.554;2024-01-30T12:37:37;8.07;;;4.18;;
23322;SDS011;11833;52.554;13.554;2024-01-30T12:40:04;10.45;;;4.53;;
23322;SDS011;11833;52.554;13.554;2024-01-30T12:42:31;4.78;;;3.53;;
23322;SDS011;11833;52.554;13.554;2024-01-30T12:44:57;8.55;;;4.55;;
23322;SDS011;11833;52.554;13.554;2024-01-30T12:47:26;10.73;;;3.70;;
23322;SDS011;11833;52.554;13.554;2024-01-30T12:49:52;9.52;;;4.65;;
23322;SDS011;11833;52.554;13.554;2024-01-30T12:52:20;6.10;;;3.40;;
23322;SDS011;11833;52.554;13.554;2024-01-30T12:54:47;5.35;;;3.80;;
23322;SDS011;11833;52.554;13.554;2024-01-30T12:57:14;6.90;;;4.47;;
23322;SDS011;11833;52.554;13.554;2024-01-30T12:59:39;9.93;;;4.47;;
23322;SDS011;11833;52.554;13.554;2024-01-30T13:02:05;6.93;;;3.92;;
23322;SDS011;11833;52.554;13.554;2024-01-30T13:04:32;9.20;;;4.38;;
23322;SDS011;11833;52.554;13.554;2024-01-30T13:06:58;7.90;;;3.97;;
23322;SDS011;11833;52.554;13.554;2024-01-30T13:09:25;10.98;;;4.72;;
23322;SDS011;11833;52.554;13.554;2024-01-30T13:11:51;6.60;;;4.20;;
23322;SDS011;11833;52.554;13.554;2024-01-30T13:14:18;4.38;;;3.35;;
23322;SDS011;11833;52.554;13.554;2024-01-30T13:16:44;8.43;;;4.32;;
23322;SDS011;11833;52.554;13.554;2024-01-30T13:19:10;9.05;;;4.57;;
23322;SDS011;11833;52.554;13.554;2024-01-30T13:21:36;5.53;;;3.67;;
23322;SDS011;11833;52.554;13.554;2024-01-30T13:24:01;9.27;;;4.55;;
23322;SDS011;11833;52.554;13.554;2024-01-30T13:26:27;6.72;;;3.95;;
23322;SDS011;11833;52.554;13.554;2024-01-30T13:28:53;7.00;;;4.05;;
23322;SDS011;11833;52.554;13.554;2024-01-30T13:31:19;10.18;;;3.90;;
23322;SDS011;11833;52.554;13.554;2024-01-30T13:33:45;7.03;;;3.95;;
23322;SDS011;11833;52.554;13.554;2024-01-30T13:36:11;8.63;;;4.20;;
23322;SDS011;11833;52.554;13.554;2024-01-30T13:38:37;7.65;;;3.95;;
23322;SDS011;11833;52.554;13.554;2024-01-30T13:41:04;9.75;;;3.90;;
23322;SDS011;11833;52.554;13.554;2024-01-30T13:43:30;9.38;;;4.78;;
23322;SDS011;11833;52.554;13.554;2024-01-30T13:45:55;8.88;;;3.72;;
23322;SDS011;11833;52.554;13.554;2024-01-30T13:48:21;7.47;;;4.35;;
23322;SDS011;11833;52.554;13.554;2024-01-30T13:50:47;6.07;;;3.65;;
23322;SDS011;11833;52.554;13.554;2024-01-30T13:53:13;8.02;;;3.83;;
23322;SDS011;11833;52.554;13.554;2024-01-30T13:55:39;6.72;;;3.60;;
23322;SDS011;11833;52.554;13.554;2024-01-30T13:58:05;10.63;;;4.32;;
23322;SDS011;11833;52.554;13.554;2024-01-30T14:00:32;5.50;;;3.85;;
23322;SDS011;11833;52.554;13.554;2024-01-30T14:02:58;5.80;;;4.05;;
23322;SDS011;11833;52.554;13.554;2024-01-30T14:05:25;8.85;;;4.45;;
23322;SDS011;11833;52.554;13.554;2024-01-30T14:07:52;7.43;;;4.25;;
23322;SDS011;11833;52.554;13.554;2024-01-30T14:10:18;10.43;;;4.13;;
23322;SDS011;11833;52.554;13.554;2024-01-30T14:12:44;9.98;;;5.07;;
23322;SDS011;11833;52.554;13.554;2024-01-30T14:15:11;5.32;;;3.38;;
23322;SDS011;11833;52.554;13.554;2024-01-30T14:17:37;8.30;;;4.10;;
23322;SDS011;11833;52.554;13.554;2024-01-30T14:20:03;11.73;;;4.82;;
23322;SDS011;11833;52.554;13.554;2024-01-30T14:22:30;8.77;;;4.30;;
23322;SDS011;11833;52.554;13.554;2024-01-30T14:24:56;6.30;;;3.95;;
23322;SDS011;11833;52.554;13.554;2024-01-30T14:27:22;9.52;;;4.30;;
23322;SDS011;11833;52.554;13.554;2024-01-30T14:29:48;10.52;;;4.15;;
23322;SDS011;11833;52.554;13.554;2024-01-30T14:32:14;10.15;;;4.05;;